sensor_id;sensor_type;location;lat;lon;timestamp;P1;durP1;ratioP1;P2;durP2;ratioP2
15553;SDS011;7878;44.632;10.942;2022-12-29T00:01:25;80.20;;;43.73;;
15553;SDS011;7878;44.632;10.942;2022-12-29T00:03:51;81.53;;;46.30;;
15553;SDS011;7878;44.632;10.942;2022-12-29T00:06:16;80.53;;;45.53;;
15553;SDS011;7878;44.632;10.942;2022-12-29T00:08:42;79.13;;;44.00;;
15553;SDS011;7878;44.632;10.942;2022-12-29T00:11:11;83.20;;;45.23;;
15553;SDS011;7878;44.632;10.942;2022-12-29T00:13:42;80.73;;;43.93;;
15553;SDS011;7878;44.632;10.942;2022-12-29T00:16:27;84.87;;;44.67;;
15553;SDS011;7878;44.632;10.942;2022-12-29T00:18:54;76.47;;;43.47;;
15553;SDS011;7878;44.632;10.942;2022-12-29T00:21:20;74.57;;;46.00;;
15553;SDS011;7878;44.632;10.942;2022-12-29T00:24:09;71.43;;;42.70;;
15553;SDS011;7878;44.632;10.942;2022-12-29T00:26:55;79.00;;;44.07;;
15553;SDS011;7878;44.632;10.942;2022-12-29T00:29:43;78.70;;;44.60;;
15553;SDS011;7878;44.632;10.942;2022-12-29T00:32:27;76.83;;;44.17;;
15553;SDS011;7878;44.632;10.942;2022-12-29T00:35:12;89.03;;;47.40;;
15553;SDS011;7878;44.632;10.942;2022-12-29T00:37:43;79.23;;;46.03;;
15553;SDS011;7878;44.632;10.942;2022-12-29T00:40:30;82.03;;;44.73;;
15553;SDS011;7878;44.632;10.942;2022-12-29T00:43:14;80.57;;;45.20;;
15553;SDS011;7878;44.632;10.942;2022-12-29T00:45:58;81.33;;;44.83;;
15553;SDS011;7878;44.632;10.942;2022-12-29T00:48:24;79.93;;;45.13;;
15553;SDS011;7878;44.632;10.942;2022-12-29T00:51:08;74.80;;;43.50;;
15553;SDS011;7878;44.632;10.942;2022-12-29T00:53:33;76.73;;;43.57;;
15553;SDS011;7878;44.632;10.942;2022-12-29T00:55:59;78.43;;;44.77;;
15553;SDS011;7878;44.632;10.942;2022-12-29T00:58:29;80.47;;;45.43;;
15553;SDS011;7878;44.632;10.942;2022-12-29T01:01:02;85.53;;;46.57;;
15553;SDS011;7878;44.632;10.942;2022-12-29T01:03:29;78.90;;;46.00;;
15553;SDS011;7878;44.632;10.942;2022-12-29T01:05:55;79.93;;;46.23;;
15553;SDS011;7878;44.632;10.942;2022-12-29T01:08:21;87.50;;;44.93;;
15553;SDS011;7878;44.632;10.942;2022-12-29T01:10:57;80.80;;;44.73;;
15553;SDS011;7878;44.632;10.942;2022-12-29T01:13:23;76.87;;;43.63;;
15553;SDS011;7878;44.632;10.942;2022-12-29T01:15:50;76.63;;;44.83;;
15553;SDS011;7878;44.632;10.942;2022-12-29T01:18:16;80.60;;;44.47;;
15553;SDS011;7878;44.632;10.942;2022-12-29T01:20:41;78.17;;;44.33;;
15553;SDS011;7878;44.632;10.942;2022-12-29T01:23:07;76.67;;;44.00;;
15553;SDS011;7878;44.632;10.942;2022-12-29T01:25:33;75.37;;;43.50;;
15553;SDS011;7878;44.632;10.942;2022-12-29T01:27:58;78.87;;;45.50;;
15553;SDS011;7878;44.632;10.942;2022-12-29T01:30:24;78.87;;;43.70;;
15553;SDS011;7878;44.632;10.942;2022-12-29T01:32:49;74.07;;;44.80;;
15553;SDS011;7878;44.632;10.942;2022-12-29T01:35:15;80.00;;;45.57;;
15553;SDS011;7878;44.632;10.942;2022-12-29T01:37:41;74.87;;;44.43;;
15553;SDS011;7878;44.632;10.942;2022-12-29T01:40:06;75.70;;;44.03;;
15553;SDS011;7878;44.632;10.942;2022-12-29T01:42:32;85.63;;;47.07;;
15553;SDS011;7878;44.632;10.942;2022-12-29T01:45:11;82.80;;;47.33;;
15553;SDS011;7878;44.632;10.942;2022-12-29T01:47:51;83.53;;;46.13;;
15553;SDS011;7878;44.632;10.942;2022-12-29T01:53:02;80.63;;;44.10;;
15553;SDS011;7878;44.632;10.942;2022-12-29T01:55:43;82.17;;;46.10;;
15553;SDS011;7878;44.632;10.942;2022-12-29T01:58:13;79.07;;;45.73;;
15553;SDS011;7878;44.632;10.942;2022-12-29T02:00:41;81.23;;;44.33;;
15553;SDS011;7878;44.632;10.942;2022-12-29T02:03:06;82.77;;;45.03;;
15553;SDS011;7878;44.632;10.942;2022-12-29T02:05:37;79.90;;;44.70;;
15553;SDS011;7878;44.632;10.942;2022-12-29T02:08:26;79.20;;;43.60;;
15553;SDS011;7878;44.632;10.942;2022-12-29T02:10:53;82.93;;;45.57;;
15553;SDS011;7878;44.632;10.942;2022-12-29T02:13:20;83.30;;;44.47;;
15553;SDS011;7878;44.632;10.942;2022-12-29T02:15:53;79.77;;;44.23;;
15553;SDS011;7878;44.632;10.942;2022-12-29T02:32:03;85.80;;;47.63;;
15553;SDS011;7878;44.632;10.942;2022-12-29T02:37:05;83.40;;;46.63;;
15553;SDS011;7878;44.632;10.942;2022-12-29T02:45:31;84.37;;;45.70;;
15553;SDS011;7878;44.632;10.942;2022-12-29T02:50:51;91.10;;;48.03;;
15553;SDS011;7878;44.632;10.942;2022-12-29T02:53:24;85.03;;;47.30;;
15553;SDS011;7878;44.632;10.942;2022-12-29T02:56:09;85.23;;;45.40;;
15553;SDS011;7878;44.632;10.942;2022-12-29T02:58:35;83.97;;;47.57;;
15553;SDS011;7878;44.632;10.942;2022-12-29T03:04:44;87.93;;;45.33;;
15553;SDS011;7878;44.632;10.942;2022-12-29T03:12:38;86.87;;;47.30;;
15553;SDS011;7878;44.632;10.942;2022-12-29T03:15:32;88.60;;;47.17;;
15553;SDS011;7878;44.632;10.942;2022-12-29T03:18:30;89.77;;;47.57;;
15553;SDS011;7878;44.632;10.942;2022-12-29T03:21:11;89.67;;;47.53;;
15553;SDS011;7878;44.632;10.942;2022-12-29T03:23:43;90.23;;;48.20;;
15553;SDS011;7878;44.632;10.942;2022-12-29T03:26:13;85.10;;;47.23;;
15553;SDS011;7878;44.632;10.942;2022-12-29T03:28:44;84.43;;;46.77;;
15553;SDS011;7878;44.632;10.942;2022-12-29T03:31:16;82.17;;;46.73;;
15553;SDS011;7878;44.632;10.942;2022-12-29T03:33:43;81.33;;;45.60;;
15553;SDS011;7878;44.632;10.942;2022-12-29T03:36:12;85.37;;;47.80;;
15553;SDS011;7878;44.632;10.942;2022-12-29T03:41:28;83.63;;;45.67;;
15553;SDS011;7878;44.632;10.942;2022-12-29T03:43:56;82.50;;;47.77;;
15553;SDS011;7878;44.632;10.942;2022-12-29T03:46:22;81.53;;;45.83;;
15553;SDS011;7878;44.632;10.942;2022-12-29T03:48:47;86.23;;;44.63;;
15553;SDS011;7878;44.632;10.942;2022-12-29T03:51:13;82.70;;;40.83;;
15553;SDS011;7878;44.632;10.942;2022-12-29T03:53:38;85.03;;;43.27;;
15553;SDS011;7878;44.632;10.942;2022-12-29T03:56:04;83.40;;;41.70;;
15553;SDS011;7878;44.632;10.942;2022-12-29T03:58:30;81.87;;;42.10;;
15553;SDS011;7878;44.632;10.942;2022-12-29T04:00:56;80.07;;;41.40;;
15553;SDS011;7878;44.632;10.942;2022-12-29T04:03:22;86.97;;;42.37;;
15553;SDS011;7878;44.632;10.942;2022-12-29T04:05:47;79.13;;;40.80;;
15553;SDS011;7878;44.632;10.942;2022-12-29T04:08:13;85.20;;;41.90;;
15553;SDS011;7878;44.632;10.942;2022-12-29T04:10:39;78.63;;;42.60;;
15553;SDS011;7878;44.632;10.942;2022-12-29T04:13:04;86.23;;;41.33;;
15553;SDS011;7878;44.632;10.942;2022-12-29T04:15:30;78.50;;;40.27;;
15553;SDS011;7878;44.632;10.942;2022-12-29T04:17:56;82.33;;;41.83;;
15553;SDS011;7878;44.632;10.942;2022-12-29T04:20:21;74.57;;;40.90;;
15553;SDS011;7878;44.632;10.942;2022-12-29T04:23:06;83.23;;;42.07;;
15553;SDS011;7878;44.632;10.942;2022-12-29T04:25:32;83.90;;;41.77;;
15553;SDS011;7878;44.632;10.942;2022-12-29T04:27:58;78.87;;;42.43;;
15553;SDS011;7878;44.632;10.942;2022-12-29T04:30:24;86.60;;;43.87;;
15553;SDS011;7878;44.632;10.942;2022-12-29T04:32:50;86.63;;;45.73;;
15553;SDS011;7878;44.632;10.942;2022-12-29T04:35:15;85.93;;;44.67;;
15553;SDS011;7878;44.632;10.942;2022-12-29T04:37:41;87.67;;;46.10;;
15553;SDS011;7878;44.632;10.942;2022-12-29T04:40:07;81.07;;;44.50;;
15553;SDS011;7878;44.632;10.942;2022-12-29T04:42:33;85.53;;;46.43;;
15553;SDS011;7878;44.632;10.942;2022-12-29T04:44:59;86.97;;;45.33;;
15553;SDS011;7878;44.632;10.942;2022-12-29T04:47:25;85.13;;;45.77;;
15553;SDS011;7878;44.632;10.942;2022-12-29T04:49:50;90.27;;;46.60;;
15553;SDS011;7878;44.632;10.942;2022-12-29T04:52:16;89.33;;;45.57;;
15553;SDS011;7878;44.632;10.942;2022-12-29T04:54:42;87.07;;;43.07;;
15553;SDS011;7878;44.632;10.942;2022-12-29T04:57:07;85.87;;;44.23;;
15553;SDS011;7878;44.632;10.942;2022-12-29T04:59:33;88.40;;;44.27;;
15553;SDS011;7878;44.632;10.942;2022-12-29T05:01:58;85.57;;;42.43;;
15553;SDS011;7878;44.632;10.942;2022-12-29T05:04:24;89.27;;;44.77;;
15553;SDS011;7878;44.632;10.942;2022-12-29T05:06:50;81.93;;;43.70;;
15553;SDS011;7878;44.632;10.942;2022-12-29T05:09:15;86.00;;;44.30;;
15553;SDS011;7878;44.632;10.942;2022-12-29T05:11:41;88.70;;;45.90;;
15553;SDS011;7878;44.632;10.942;2022-12-29T05:14:07;98.73;;;47.00;;
15553;SDS011;7878;44.632;10.942;2022-12-29T05:16:32;89.07;;;44.93;;
15553;SDS011;7878;44.632;10.942;2022-12-29T05:18:58;98.33;;;46.70;;
15553;SDS011;7878;44.632;10.942;2022-12-29T05:21:24;93.57;;;45.23;;
15553;SDS011;7878;44.632;10.942;2022-12-29T05:23:49;86.57;;;43.43;;
15553;SDS011;7878;44.632;10.942;2022-12-29T05:26:15;89.80;;;45.40;;
15553;SDS011;7878;44.632;10.942;2022-12-29T05:28:41;95.73;;;46.00;;
15553;SDS011;7878;44.632;10.942;2022-12-29T05:31:06;89.57;;;45.40;;
15553;SDS011;7878;44.632;10.942;2022-12-29T05:33:32;91.30;;;45.37;;
15553;SDS011;7878;44.632;10.942;2022-12-29T05:36:03;86.50;;;43.23;;
15553;SDS011;7878;44.632;10.942;2022-12-29T05:38:29;92.97;;;47.57;;
15553;SDS011;7878;44.632;10.942;2022-12-29T05:40:55;100.17;;;58.50;;
15553;SDS011;7878;44.632;10.942;2022-12-29T05:43:21;90.40;;;48.43;;
15553;SDS011;7878;44.632;10.942;2022-12-29T05:45:48;89.90;;;42.53;;
15553;SDS011;7878;44.632;10.942;2022-12-29T05:48:14;80.97;;;41.03;;
15553;SDS011;7878;44.632;10.942;2022-12-29T05:50:40;85.53;;;41.23;;
15553;SDS011;7878;44.632;10.942;2022-12-29T05:53:06;70.70;;;38.43;;
15553;SDS011;7878;44.632;10.942;2022-12-29T05:55:31;78.53;;;39.17;;
15553;SDS011;7878;44.632;10.942;2022-12-29T05:57:57;73.30;;;37.90;;
15553;SDS011;7878;44.632;10.942;2022-12-29T06:00:23;74.47;;;38.73;;
15553;SDS011;7878;44.632;10.942;2022-12-29T06:02:49;79.53;;;39.67;;
15553;SDS011;7878;44.632;10.942;2022-12-29T06:05:15;82.43;;;39.63;;
15553;SDS011;7878;44.632;10.942;2022-12-29T06:07:40;76.83;;;40.67;;
15553;SDS011;7878;44.632;10.942;2022-12-29T06:10:06;79.50;;;39.27;;
15553;SDS011;7878;44.632;10.942;2022-12-29T06:12:32;78.57;;;39.23;;
15553;SDS011;7878;44.632;10.942;2022-12-29T06:14:58;80.70;;;38.53;;
15553;SDS011;7878;44.632;10.942;2022-12-29T06:17:24;85.83;;;40.53;;
15553;SDS011;7878;44.632;10.942;2022-12-29T06:19:49;81.60;;;40.37;;
15553;SDS011;7878;44.632;10.942;2022-12-29T06:22:15;86.03;;;39.43;;
15553;SDS011;7878;44.632;10.942;2022-12-29T06:24:40;75.40;;;38.73;;
15553;SDS011;7878;44.632;10.942;2022-12-29T06:27:06;76.33;;;38.77;;
15553;SDS011;7878;44.632;10.942;2022-12-29T06:29:32;76.43;;;39.10;;
15553;SDS011;7878;44.632;10.942;2022-12-29T06:31:58;79.60;;;38.47;;
15553;SDS011;7878;44.632;10.942;2022-12-29T06:34:24;72.87;;;36.90;;
15553;SDS011;7878;44.632;10.942;2022-12-29T06:36:50;75.43;;;36.87;;
15553;SDS011;7878;44.632;10.942;2022-12-29T06:39:16;72.57;;;38.90;;
15553;SDS011;7878;44.632;10.942;2022-12-29T06:41:41;78.43;;;38.30;;
15553;SDS011;7878;44.632;10.942;2022-12-29T06:44:07;70.83;;;37.97;;
15553;SDS011;7878;44.632;10.942;2022-12-29T06:46:33;68.80;;;36.73;;
15553;SDS011;7878;44.632;10.942;2022-12-29T06:48:58;69.13;;;35.53;;
15553;SDS011;7878;44.632;10.942;2022-12-29T06:51:24;75.17;;;37.87;;
15553;SDS011;7878;44.632;10.942;2022-12-29T06:53:49;65.07;;;35.07;;
15553;SDS011;7878;44.632;10.942;2022-12-29T06:56:15;74.63;;;35.53;;
15553;SDS011;7878;44.632;10.942;2022-12-29T06:58:41;68.17;;;35.57;;
15553;SDS011;7878;44.632;10.942;2022-12-29T07:01:06;65.13;;;33.53;;
15553;SDS011;7878;44.632;10.942;2022-12-29T07:03:32;60.63;;;31.87;;
15553;SDS011;7878;44.632;10.942;2022-12-29T07:05:58;66.17;;;34.43;;
15553;SDS011;7878;44.632;10.942;2022-12-29T07:08:23;62.60;;;31.83;;
15553;SDS011;7878;44.632;10.942;2022-12-29T07:10:49;68.33;;;34.33;;
15553;SDS011;7878;44.632;10.942;2022-12-29T07:13:15;64.60;;;33.40;;
15553;SDS011;7878;44.632;10.942;2022-12-29T07:15:40;60.93;;;33.03;;
15553;SDS011;7878;44.632;10.942;2022-12-29T07:18:06;65.17;;;31.07;;
15553;SDS011;7878;44.632;10.942;2022-12-29T07:20:32;59.73;;;32.83;;
15553;SDS011;7878;44.632;10.942;2022-12-29T07:22:58;62.37;;;32.97;;
15553;SDS011;7878;44.632;10.942;2022-12-29T07:25:23;60.20;;;32.77;;
15553;SDS011;7878;44.632;10.942;2022-12-29T07:27:49;59.27;;;32.73;;
15553;SDS011;7878;44.632;10.942;2022-12-29T07:30:15;56.07;;;31.13;;
15553;SDS011;7878;44.632;10.942;2022-12-29T07:32:40;64.60;;;33.87;;
15553;SDS011;7878;44.632;10.942;2022-12-29T07:35:06;67.73;;;34.90;;
15553;SDS011;7878;44.632;10.942;2022-12-29T07:37:33;64.23;;;33.50;;
15553;SDS011;7878;44.632;10.942;2022-12-29T07:40:00;67.97;;;35.07;;
15553;SDS011;7878;44.632;10.942;2022-12-29T07:42:26;67.73;;;33.50;;
15553;SDS011;7878;44.632;10.942;2022-12-29T07:44:52;71.97;;;35.37;;
15553;SDS011;7878;44.632;10.942;2022-12-29T07:47:17;64.27;;;35.33;;
15553;SDS011;7878;44.632;10.942;2022-12-29T07:49:43;77.30;;;37.10;;
15553;SDS011;7878;44.632;10.942;2022-12-29T07:52:09;75.10;;;37.57;;
15553;SDS011;7878;44.632;10.942;2022-12-29T07:54:34;70.63;;;37.77;;
15553;SDS011;7878;44.632;10.942;2022-12-29T07:57:00;65.97;;;35.50;;
15553;SDS011;7878;44.632;10.942;2022-12-29T07:59:26;75.13;;;37.23;;
15553;SDS011;7878;44.632;10.942;2022-12-29T08:01:52;74.47;;;36.97;;
15553;SDS011;7878;44.632;10.942;2022-12-29T08:04:17;79.43;;;39.27;;
15553;SDS011;7878;44.632;10.942;2022-12-29T08:06:43;77.00;;;38.67;;
15553;SDS011;7878;44.632;10.942;2022-12-29T08:09:10;70.67;;;36.10;;
15553;SDS011;7878;44.632;10.942;2022-12-29T08:11:36;65.57;;;35.20;;
15553;SDS011;7878;44.632;10.942;2022-12-29T08:14:02;67.17;;;34.53;;
15553;SDS011;7878;44.632;10.942;2022-12-29T08:16:28;65.93;;;36.60;;
15553;SDS011;7878;44.632;10.942;2022-12-29T08:18:54;71.07;;;37.17;;
15553;SDS011;7878;44.632;10.942;2022-12-29T08:21:19;66.93;;;34.93;;
15553;SDS011;7878;44.632;10.942;2022-12-29T08:23:45;70.57;;;37.00;;
15553;SDS011;7878;44.632;10.942;2022-12-29T08:26:12;65.23;;;35.20;;
15553;SDS011;7878;44.632;10.942;2022-12-29T08:28:37;71.77;;;34.83;;
15553;SDS011;7878;44.632;10.942;2022-12-29T08:31:03;65.03;;;35.50;;
15553;SDS011;7878;44.632;10.942;2022-12-29T08:33:29;67.50;;;35.47;;
15553;SDS011;7878;44.632;10.942;2022-12-29T08:35:59;66.50;;;35.70;;
15553;SDS011;7878;44.632;10.942;2022-12-29T08:38:26;61.87;;;34.33;;
15553;SDS011;7878;44.632;10.942;2022-12-29T08:40:53;68.07;;;35.47;;
15553;SDS011;7878;44.632;10.942;2022-12-29T08:43:18;63.87;;;35.53;;
15553;SDS011;7878;44.632;10.942;2022-12-29T08:45:44;66.60;;;36.93;;
15553;SDS011;7878;44.632;10.942;2022-12-29T08:48:10;70.17;;;38.30;;
15553;SDS011;7878;44.632;10.942;2022-12-29T08:50:35;71.50;;;38.47;;
15553;SDS011;7878;44.632;10.942;2022-12-29T08:53:01;72.73;;;38.70;;
15553;SDS011;7878;44.632;10.942;2022-12-29T08:55:27;75.47;;;40.63;;
15553;SDS011;7878;44.632;10.942;2022-12-29T08:57:53;75.80;;;39.90;;
15553;SDS011;7878;44.632;10.942;2022-12-29T09:00:18;79.43;;;41.53;;
15553;SDS011;7878;44.632;10.942;2022-12-29T09:02:45;90.07;;;43.57;;
15553;SDS011;7878;44.632;10.942;2022-12-29T09:05:11;85.33;;;43.60;;
15553;SDS011;7878;44.632;10.942;2022-12-29T09:07:36;85.90;;;43.27;;
15553;SDS011;7878;44.632;10.942;2022-12-29T09:10:02;93.70;;;43.80;;
15553;SDS011;7878;44.632;10.942;2022-12-29T09:12:28;94.00;;;45.43;;
15553;SDS011;7878;44.632;10.942;2022-12-29T09:14:54;82.70;;;43.87;;
15553;SDS011;7878;44.632;10.942;2022-12-29T09:17:20;80.60;;;42.13;;
15553;SDS011;7878;44.632;10.942;2022-12-29T09:20:04;88.33;;;43.60;;
15553;SDS011;7878;44.632;10.942;2022-12-29T09:22:30;79.50;;;40.97;;
15553;SDS011;7878;44.632;10.942;2022-12-29T09:24:56;78.73;;;41.80;;
15553;SDS011;7878;44.632;10.942;2022-12-29T09:27:22;82.63;;;41.80;;
15553;SDS011;7878;44.632;10.942;2022-12-29T09:29:47;86.60;;;42.37;;
15553;SDS011;7878;44.632;10.942;2022-12-29T09:32:13;86.33;;;41.33;;
15553;SDS011;7878;44.632;10.942;2022-12-29T09:34:38;80.70;;;43.43;;
15553;SDS011;7878;44.632;10.942;2022-12-29T09:37:04;89.83;;;43.57;;
15553;SDS011;7878;44.632;10.942;2022-12-29T09:39:30;88.30;;;44.60;;
15553;SDS011;7878;44.632;10.942;2022-12-29T09:47:13;94.03;;;46.43;;
15553;SDS011;7878;44.632;10.942;2022-12-29T09:49:45;86.57;;;45.43;;
15553;SDS011;7878;44.632;10.942;2022-12-29T09:52:20;94.80;;;48.17;;
15553;SDS011;7878;44.632;10.942;2022-12-29T09:54:55;94.00;;;48.43;;
15553;SDS011;7878;44.632;10.942;2022-12-29T09:57:24;79.90;;;42.37;;
15553;SDS011;7878;44.632;10.942;2022-12-29T09:59:58;76.40;;;41.63;;
15553;SDS011;7878;44.632;10.942;2022-12-29T10:02:31;71.60;;;40.47;;
15553;SDS011;7878;44.632;10.942;2022-12-29T10:05:30;74.17;;;40.70;;
15553;SDS011;7878;44.632;10.942;2022-12-29T10:10:56;63.00;;;41.47;;
15553;SDS011;7878;44.632;10.942;2022-12-29T10:16:18;65.53;;;40.83;;
15553;SDS011;7878;44.632;10.942;2022-12-29T10:19:14;61.20;;;38.80;;
15553;SDS011;7878;44.632;10.942;2022-12-29T10:24:38;59.70;;;38.60;;
15553;SDS011;7878;44.632;10.942;2022-12-29T10:27:05;60.20;;;37.93;;
15553;SDS011;7878;44.632;10.942;2022-12-29T10:29:40;60.80;;;38.13;;
15553;SDS011;7878;44.632;10.942;2022-12-29T10:32:17;55.00;;;35.80;;
15553;SDS011;7878;44.632;10.942;2022-12-29T10:35:26;60.20;;;37.60;;
15553;SDS011;7878;44.632;10.942;2022-12-29T10:43:26;56.30;;;37.13;;
15553;SDS011;7878;44.632;10.942;2022-12-29T10:46:03;59.73;;;34.80;;
15553;SDS011;7878;44.632;10.942;2022-12-29T10:48:34;55.20;;;32.70;;
15553;SDS011;7878;44.632;10.942;2022-12-29T10:51:01;42.90;;;29.80;;
15553;SDS011;7878;44.632;10.942;2022-12-29T10:53:33;39.83;;;27.47;;
15553;SDS011;7878;44.632;10.942;2022-12-29T10:56:03;49.90;;;28.30;;
15553;SDS011;7878;44.632;10.942;2022-12-29T10:58:40;41.67;;;29.23;;
15553;SDS011;7878;44.632;10.942;2022-12-29T11:01:08;42.03;;;28.53;;
15553;SDS011;7878;44.632;10.942;2022-12-29T11:06:26;38.80;;;25.70;;
15553;SDS011;7878;44.632;10.942;2022-12-29T11:08:57;43.77;;;28.60;;
15553;SDS011;7878;44.632;10.942;2022-12-29T11:11:35;40.17;;;27.17;;
15553;SDS011;7878;44.632;10.942;2022-12-29T11:14:07;38.87;;;26.90;;
15553;SDS011;7878;44.632;10.942;2022-12-29T11:16:42;40.03;;;28.90;;
15553;SDS011;7878;44.632;10.942;2022-12-29T11:19:20;44.90;;;28.73;;
15553;SDS011;7878;44.632;10.942;2022-12-29T11:21:47;44.67;;;29.07;;
15553;SDS011;7878;44.632;10.942;2022-12-29T11:26:48;41.00;;;26.77;;
15553;SDS011;7878;44.632;10.942;2022-12-29T11:29:22;39.90;;;27.27;;
15553;SDS011;7878;44.632;10.942;2022-12-29T11:31:56;42.17;;;28.40;;
15553;SDS011;7878;44.632;10.942;2022-12-29T11:34:31;41.70;;;27.43;;
15553;SDS011;7878;44.632;10.942;2022-12-29T11:37:00;38.50;;;26.37;;
15553;SDS011;7878;44.632;10.942;2022-12-29T11:42:40;46.00;;;27.93;;
15553;SDS011;7878;44.632;10.942;2022-12-29T11:45:16;49.30;;;30.23;;
15553;SDS011;7878;44.632;10.942;2022-12-29T11:47:46;52.10;;;32.33;;
15553;SDS011;7878;44.632;10.942;2022-12-29T11:50:17;51.50;;;32.70;;
15553;SDS011;7878;44.632;10.942;2022-12-29T11:52:46;48.30;;;31.40;;
15553;SDS011;7878;44.632;10.942;2022-12-29T11:55:18;51.43;;;32.77;;
15553;SDS011;7878;44.632;10.942;2022-12-29T11:57:47;48.90;;;31.63;;
15553;SDS011;7878;44.632;10.942;2022-12-29T12:02:45;48.30;;;32.27;;
15553;SDS011;7878;44.632;10.942;2022-12-29T12:07:46;53.67;;;32.33;;
15553;SDS011;7878;44.632;10.942;2022-12-29T12:10:37;55.60;;;32.80;;
15553;SDS011;7878;44.632;10.942;2022-12-29T12:16:04;53.80;;;33.53;;
15553;SDS011;7878;44.632;10.942;2022-12-29T12:18:37;55.60;;;34.53;;
15553;SDS011;7878;44.632;10.942;2022-12-29T12:26:39;59.70;;;35.37;;
15553;SDS011;7878;44.632;10.942;2022-12-29T12:29:35;55.03;;;34.33;;
15553;SDS011;7878;44.632;10.942;2022-12-29T12:32:19;54.43;;;31.80;;
15553;SDS011;7878;44.632;10.942;2022-12-29T12:34:56;56.53;;;34.70;;
15553;SDS011;7878;44.632;10.942;2022-12-29T12:37:26;51.50;;;32.53;;
15553;SDS011;7878;44.632;10.942;2022-12-29T12:43:22;55.33;;;33.57;;
15553;SDS011;7878;44.632;10.942;2022-12-29T12:54:34;59.40;;;33.27;;
15553;SDS011;7878;44.632;10.942;2022-12-29T13:00:13;55.40;;;33.07;;
15553;SDS011;7878;44.632;10.942;2022-12-29T13:03:03;58.57;;;33.30;;
15553;SDS011;7878;44.632;10.942;2022-12-29T13:21:14;56.67;;;33.40;;
15553;SDS011;7878;44.632;10.942;2022-12-29T13:24:14;54.70;;;31.97;;
15553;SDS011;7878;44.632;10.942;2022-12-29T13:26:51;53.83;;;32.40;;
15553;SDS011;7878;44.632;10.942;2022-12-29T13:29:35;51.80;;;33.13;;
15553;SDS011;7878;44.632;10.942;2022-12-29T13:34:56;49.33;;;30.80;;
15553;SDS011;7878;44.632;10.942;2022-12-29T13:37:48;52.10;;;29.27;;
15553;SDS011;7878;44.632;10.942;2022-12-29T13:40:19;49.37;;;29.73;;
15553;SDS011;7878;44.632;10.942;2022-12-29T13:42:49;51.40;;;29.93;;
15553;SDS011;7878;44.632;10.942;2022-12-29T13:45:20;54.17;;;33.17;;
15553;SDS011;7878;44.632;10.942;2022-12-29T13:50:41;61.70;;;33.43;;
15553;SDS011;7878;44.632;10.942;2022-12-29T13:53:17;57.40;;;33.73;;
15553;SDS011;7878;44.632;10.942;2022-12-29T13:56:04;57.87;;;33.60;;
15553;SDS011;7878;44.632;10.942;2022-12-29T14:03:56;68.30;;;35.87;;
15553;SDS011;7878;44.632;10.942;2022-12-29T14:06:27;59.50;;;34.73;;
15553;SDS011;7878;44.632;10.942;2022-12-29T14:08:54;63.27;;;36.03;;
15553;SDS011;7878;44.632;10.942;2022-12-29T14:11:35;60.30;;;34.77;;
15553;SDS011;7878;44.632;10.942;2022-12-29T14:14:13;51.60;;;30.70;;
15553;SDS011;7878;44.632;10.942;2022-12-29T14:16:47;58.73;;;33.43;;
15553;SDS011;7878;44.632;10.942;2022-12-29T14:21:59;57.00;;;35.20;;
15553;SDS011;7878;44.632;10.942;2022-12-29T14:26:59;54.73;;;31.70;;
15553;SDS011;7878;44.632;10.942;2022-12-29T14:34:50;61.40;;;32.47;;
15553;SDS011;7878;44.632;10.942;2022-12-29T14:37:32;57.70;;;33.03;;
15553;SDS011;7878;44.632;10.942;2022-12-29T14:40:08;53.53;;;33.23;;
15553;SDS011;7878;44.632;10.942;2022-12-29T14:42:44;52.83;;;32.73;;
15553;SDS011;7878;44.632;10.942;2022-12-29T14:47:43;55.07;;;33.03;;
15553;SDS011;7878;44.632;10.942;2022-12-29T14:58:01;47.33;;;30.33;;
15553;SDS011;7878;44.632;10.942;2022-12-29T15:00:33;46.73;;;29.53;;
15553;SDS011;7878;44.632;10.942;2022-12-29T15:03:06;52.07;;;30.53;;
15553;SDS011;7878;44.632;10.942;2022-12-29T15:08:17;48.93;;;30.00;;
15553;SDS011;7878;44.632;10.942;2022-12-29T15:10:48;54.93;;;32.50;;
15553;SDS011;7878;44.632;10.942;2022-12-29T15:13:35;53.23;;;32.30;;
15553;SDS011;7878;44.632;10.942;2022-12-29T15:16:04;58.93;;;34.07;;
15553;SDS011;7878;44.632;10.942;2022-12-29T15:18:31;57.97;;;34.97;;
15553;SDS011;7878;44.632;10.942;2022-12-29T15:20:59;61.30;;;36.67;;
15553;SDS011;7878;44.632;10.942;2022-12-29T15:23:26;64.50;;;35.90;;
15553;SDS011;7878;44.632;10.942;2022-12-29T15:28:51;64.63;;;36.70;;
15553;SDS011;7878;44.632;10.942;2022-12-29T15:31:23;60.57;;;37.07;;
15553;SDS011;7878;44.632;10.942;2022-12-29T15:33:50;63.43;;;37.93;;
15553;SDS011;7878;44.632;10.942;2022-12-29T15:36:20;79.10;;;46.53;;
15553;SDS011;7878;44.632;10.942;2022-12-29T15:38:47;65.30;;;37.53;;
15553;SDS011;7878;44.632;10.942;2022-12-29T15:44:10;63.27;;;37.57;;
15553;SDS011;7878;44.632;10.942;2022-12-29T15:46:42;61.40;;;36.03;;
15553;SDS011;7878;44.632;10.942;2022-12-29T15:49:08;63.13;;;36.53;;
15553;SDS011;7878;44.632;10.942;2022-12-29T15:51:38;63.07;;;35.17;;
15553;SDS011;7878;44.632;10.942;2022-12-29T15:54:05;64.13;;;35.87;;
15553;SDS011;7878;44.632;10.942;2022-12-29T15:56:39;62.93;;;36.23;;
15553;SDS011;7878;44.632;10.942;2022-12-29T15:59:18;61.40;;;35.00;;
15553;SDS011;7878;44.632;10.942;2022-12-29T16:01:53;55.87;;;32.17;;
15553;SDS011;7878;44.632;10.942;2022-12-29T16:04:23;58.67;;;34.20;;
15553;SDS011;7878;44.632;10.942;2022-12-29T16:07:02;59.27;;;34.13;;
15553;SDS011;7878;44.632;10.942;2022-12-29T16:12:02;55.77;;;31.83;;
15553;SDS011;7878;44.632;10.942;2022-12-29T16:14:41;56.03;;;32.23;;
15553;SDS011;7878;44.632;10.942;2022-12-29T16:17:12;57.40;;;31.80;;
15553;SDS011;7878;44.632;10.942;2022-12-29T16:19:40;56.03;;;32.37;;
15553;SDS011;7878;44.632;10.942;2022-12-29T16:22:23;57.07;;;33.03;;
15553;SDS011;7878;44.632;10.942;2022-12-29T16:25:04;61.27;;;33.43;;
15553;SDS011;7878;44.632;10.942;2022-12-29T16:27:45;57.93;;;33.67;;
15553;SDS011;7878;44.632;10.942;2022-12-29T16:32:48;57.07;;;33.73;;
15553;SDS011;7878;44.632;10.942;2022-12-29T16:35:19;51.03;;;31.77;;
15553;SDS011;7878;44.632;10.942;2022-12-29T16:40:50;48.67;;;29.97;;
15553;SDS011;7878;44.632;10.942;2022-12-29T16:43:28;48.37;;;29.60;;
15553;SDS011;7878;44.632;10.942;2022-12-29T16:48:28;48.57;;;28.83;;
15553;SDS011;7878;44.632;10.942;2022-12-29T16:53:42;47.53;;;29.20;;
15553;SDS011;7878;44.632;10.942;2022-12-29T16:56:15;51.63;;;29.57;;
15553;SDS011;7878;44.632;10.942;2022-12-29T16:58:47;47.33;;;29.30;;
15553;SDS011;7878;44.632;10.942;2022-12-29T17:01:15;46.17;;;28.67;;
15553;SDS011;7878;44.632;10.942;2022-12-29T17:03:46;48.37;;;29.47;;
15553;SDS011;7878;44.632;10.942;2022-12-29T17:06:18;47.17;;;29.00;;
15553;SDS011;7878;44.632;10.942;2022-12-29T17:08:47;53.73;;;30.73;;
15553;SDS011;7878;44.632;10.942;2022-12-29T17:11:46;50.97;;;30.90;;
15553;SDS011;7878;44.632;10.942;2022-12-29T17:16:56;51.67;;;30.90;;
15553;SDS011;7878;44.632;10.942;2022-12-29T17:19:30;54.03;;;30.07;;
15553;SDS011;7878;44.632;10.942;2022-12-29T17:21:57;51.90;;;31.13;;
15553;SDS011;7878;44.632;10.942;2022-12-29T17:24:23;55.33;;;34.07;;
15553;SDS011;7878;44.632;10.942;2022-12-29T17:26:50;57.77;;;34.23;;